Time;durP1;ratioP1;P1;durP2;ratioP2;P2;SDS_P1;SDS_P2;PMS_P1;PMS_P2;Temp;Humidity;BMP_temperature;BMP_pressure;BME280_temperature;BME280_humidity;BME280_pressure;Samples;Min_cycle;Max_cycle;Signal;HPM_P1;HPM_P2
2022/01/03 00:00:31;;;;;;;6.22;3.38;;;11.30;99.90;;;;;;2092408;28;20097;-74
2022/01/03 00:01:34;;;;;;;6.32;3.80;;;11.40;99.90;;;;;;2091619;28;20028;-74
2022/01/03 00:02:37;;;;;;;8.52;3.75;;;11.30;99.90;;;;;;2091844;28;20021;-75
2022/01/03 00:03:38;;;;;;;5.15;3.33;;;11.40;99.90;;;;;;2091624;28;20508;-71
2022/01/03 00:04:39;;;;;;;8.40;3.42;;;11.40;99.90;;;;;;2090156;28;20033;-73
2022/01/03 00:05:40;;;;;;;7.50;3.38;;;11.30;99.90;;;;;;2091326;28;20029;-73
2022/01/03 00:06:41;;;;;;;8.32;3.80;;;11.40;99.90;;;;;;2092579;28;20037;-72
2022/01/03 00:07:44;;;;;;;7.32;3.30;;;11.30;99.90;;;;;;2091925;28;20560;-73
2022/01/03 00:08:45;;;;;;;5.53;3.28;;;11.30;99.90;;;;;;2091336;28;20021;-70
2022/01/03 00:09:46;;;;;;;6.45;3.53;;;11.30;99.90;;;;;;2091095;28;20044;-72
2022/01/03 00:10:47;;;;;;;5.50;3.20;;;11.30;99.90;;;;;;2090205;28;20021;-72
2022/01/03 00:11:47;;;;;;;6.93;3.50;;;11.30;99.90;;;;;;2091098;28;20032;-72
2022/01/03 00:12:49;;;;;;;8.63;3.53;;;11.30;99.90;;;;;;2090670;28;20032;-72
2022/01/03 00:13:50;;;;;;;8.10;3.30;;;11.30;99.90;;;;;;2090351;28;20036;-72
2022/01/03 00:14:52;;;;;;;6.75;3.50;;;11.30;99.90;;;;;;2081842;28;20025;-72
2022/01/03 00:15:55;;;;;;;7.28;3.38;;;11.30;99.90;;;;;;2089900;28;20028;-72
2022/01/03 00:16:56;;;;;;;5.97;3.40;;;11.30;99.90;;;;;;2090368;28;20836;-72
2022/01/03 00:17:57;;;;;;;5.07;3.13;;;11.30;99.90;;;;;;2089959;28;20032;-72
2022/01/03 00:18:58;;;;;;;5.30;3.20;;;11.40;99.90;;;;;;2090437;28;20600;-72
2022/01/03 00:19:58;;;;;;;7.00;3.30;;;11.40;99.90;;;;;;2091396;28;20072;-73
2022/01/03 00:21:01;;;;;;;5.88;3.40;;;11.40;99.90;;;;;;2090418;28;20029;-72
2022/01/03 00:22:06;;;;;;;7.15;3.40;;;11.50;99.90;;;;;;2090902;28;20033;-72
2022/01/03 00:23:09;;;;;;;6.40;3.20;;;11.50;99.90;;;;;;2091299;28;20421;-73
2022/01/03 00:24:11;;;;;;;6.70;3.40;;;11.50;99.90;;;;;;2091414;28;20052;-72
2022/01/03 00:25:23;;;;;;;6.00;3.35;;;11.50;99.90;;;;;;2090972;28;20101;-71
2022/01/03 00:26:26;;;;;;;5.90;3.15;;;11.50;99.90;;;;;;2090254;28;20420;-72
2022/01/03 00:28:06;;;;;;;7.53;3.25;;;11.60;99.90;;;;;;2090277;28;20667;-71
2022/01/03 00:29:20;;;;;;;6.40;3.10;;;11.60;99.90;;;;;;2089770;28;20037;-71
2022/01/03 00:30:23;;;;;;;7.10;2.97;;;11.60;99.90;;;;;;2090050;28;20021;-74
2022/01/03 00:31:38;;;;;;;5.85;3.28;;;11.70;99.90;;;;;;2090750;28;20017;-69
2022/01/03 00:32:47;;;;;;;6.90;3.25;;;11.70;99.90;;;;;;2090168;28;20108;-71
2022/01/03 00:33:54;;;;;;;6.40;3.00;;;11.60;99.90;;;;;;2089931;28;20025;-72
2022/01/03 00:34:55;;;;;;;7.50;3.00;;;11.60;99.90;;;;;;2089832;28;20036;-73
2022/01/03 00:35:59;;;;;;;6.22;3.15;;;11.60;99.90;;;;;;2089586;28;20045;-72
2022/01/03 00:37:00;;;;;;;6.22;3.10;;;11.60;99.90;;;;;;2089422;28;20036;-72
2022/01/03 00:38:01;;;;;;;5.50;3.03;;;11.70;99.90;;;;;;2089797;28;20075;-74
2022/01/03 00:39:07;;;;;;;7.75;3.08;;;11.70;99.90;;;;;;2089017;28;20120;-71
2022/01/03 00:40:08;;;;;;;5.53;2.90;;;11.70;99.90;;;;;;2089847;28;20493;-72
2022/01/03 00:41:09;;;;;;;5.20;2.83;;;11.70;99.90;;;;;;2089895;28;20021;-72
2022/01/03 00:42:14;;;;;;;5.82;3.00;;;11.70;99.90;;;;;;2089981;28;20436;-72
2022/01/03 00:43:16;;;;;;;4.88;2.92;;;11.70;99.90;;;;;;2090315;28;20017;-72
2022/01/03 00:44:16;;;;;;;5.60;2.83;;;11.70;99.90;;;;;;2090478;28;20043;-72
2022/01/03 00:45:17;;;;;;;5.05;3.00;;;11.70;99.90;;;;;;2090100;28;20551;-72
2022/01/03 00:46:19;;;;;;;4.72;2.72;;;11.70;99.90;;;;;;2089917;28;20017;-70
2022/01/03 00:47:20;;;;;;;7.03;3.00;;;11.70;99.90;;;;;;2090001;28;20105;-72
2022/01/03 00:48:21;;;;;;;6.75;2.80;;;11.70;99.90;;;;;;2089409;28;20029;-71
2022/01/03 00:49:22;;;;;;;6.78;2.83;;;11.70;99.90;;;;;;2088935;28;20037;-72
2022/01/03 00:50:24;;;;;;;7.30;3.00;;;11.80;99.90;;;;;;2089717;28;20100;-72
2022/01/03 00:51:25;;;;;;;5.95;2.80;;;11.70;99.90;;;;;;2089545;28;20104;-70
2022/01/03 00:52:26;;;;;;;5.55;2.50;;;11.80;99.90;;;;;;2088957;28;20052;-71
2022/01/03 00:53:26;;;;;;;9.05;2.80;;;11.80;99.90;;;;;;2089318;28;20063;-71
2022/01/03 00:54:27;;;;;;;7.72;2.60;;;11.80;99.90;;;;;;2089988;28;20056;-71
2022/01/03 00:55:28;;;;;;;5.25;3.00;;;11.80;99.90;;;;;;2088990;28;20029;-72
2022/01/03 00:57:12;;;;;;;5.43;2.50;;;11.80;99.90;;;;;;2089200;28;20391;-73
2022/01/03 00:58:18;;;;;;;4.90;2.70;;;11.80;99.90;;;;;;2056010;28;20094;-72
2022/01/03 00:59:32;;;;;;;6.80;2.72;;;11.80;99.90;;;;;;2062789;28;20058;-72
2022/01/03 01:00:39;;;;;;;4.95;2.78;;;11.80;99.90;;;;;;2088620;28;20021;-72
2022/01/03 01:01:45;;;;;;;4.68;2.72;;;11.80;99.90;;;;;;2088304;28;20059;-73
2022/01/03 01:03:06;;;;;;;5.85;2.78;;;11.80;99.90;;;;;;2081452;28;20021;-71
2022/01/03 01:04:08;;;;;;;;;;;11.80;99.90;;;;;;2089053;28;20160;-71
2022/01/03 01:05:10;;;;;;;5.43;2.70;;;11.80;99.90;;;;;;2088720;28;20371;-71
2022/01/03 01:06:11;;;;;;;7.50;2.70;;;11.80;99.90;;;;;;2089085;28;20539;-71
2022/01/03 01:07:15;;;;;;;5.40;2.70;;;11.80;99.90;;;;;;2089356;28;20059;-72
2022/01/03 01:08:21;;;;;;;5.88;2.80;;;11.80;99.90;;;;;;2088586;28;20546;-73
2022/01/03 01:09:25;;;;;;;6.80;2.92;;;11.80;99.90;;;;;;2088130;28;20021;-71
2022/01/03 01:10:29;;;;;;;6.22;2.55;;;11.80;99.90;;;;;;2088538;28;20412;-71
2022/01/03 01:11:30;;;;;;;8.20;2.90;;;11.70;99.90;;;;;;2088335;28;20120;-72
2022/01/03 01:12:32;;;;;;;5.28;2.70;;;11.70;99.90;;;;;;2088449;28;20032;-71
2022/01/03 01:13:35;;;;;;;6.57;2.95;;;11.80;99.90;;;;;;2088637;28;20028;-71
2022/01/03 01:14:36;;;;;;;5.28;2.78;;;11.80;99.90;;;;;;2088462;28;20029;-72
2022/01/03 01:15:39;;;;;;;4.88;2.60;;;11.80;99.90;;;;;;2088569;28;20029;-72
2022/01/03 01:16:40;;;;;;;5.60;2.58;;;11.90;99.90;;;;;;2080310;28;20488;-72
2022/01/03 01:17:42;;;;;;;6.22;2.70;;;11.90;99.90;;;;;;2088523;28;20094;-72
2022/01/03 01:18:44;;;;;;;5.97;2.67;;;11.90;99.90;;;;;;2079760;28;20037;-71
2022/01/03 01:19:45;;;;;;;6.55;2.72;;;11.90;99.90;;;;;;2088500;28;20056;-71
2022/01/03 01:20:48;;;;;;;7.50;2.90;;;11.90;99.90;;;;;;2088851;28;20405;-71
2022/01/03 01:21:50;;;;;;;3.20;2.30;;;11.90;99.90;;;;;;2087460;28;20037;-72
2022/01/03 01:22:51;;;;;;;3.40;2.40;;;11.90;99.90;;;;;;2087970;28;20052;-71
2022/01/03 01:23:56;;;;;;;7.75;2.47;;;11.90;99.90;;;;;;2088553;28;20045;-71
2022/01/03 01:27:56;;;;;;;7.63;2.58;;;11.70;99.90;;;;;;2063554;28;20026;-71
2022/01/03 01:28:57;;;;;;;7.78;2.53;;;11.60;99.90;;;;;;2069748;28;20073;-72
2022/01/03 01:29:58;;;;;;;5.20;2.50;;;11.60;99.90;;;;;;2080557;28;20789;-71
2022/01/03 01:31:01;;;;;;;5.25;2.65;;;11.60;99.90;;;;;;2072080;28;20084;-71
2022/01/03 01:32:04;;;;;;;6.32;2.80;;;11.50;99.90;;;;;;2080295;28;20573;-72
2022/01/03 01:33:09;;;;;;;6.60;2.35;;;11.40;99.90;;;;;;2088426;28;20127;-71
2022/01/03 01:34:26;;;;;;;5.70;2.40;;;11.30;99.90;;;;;;2080684;28;20029;-71
2022/01/03 01:35:36;;;;;;;7.28;2.72;;;11.30;99.90;;;;;;2088627;28;20528;-71
2022/01/03 01:36:45;;;;;;;4.78;2.35;;;11.20;99.90;;;;;;2088596;28;20114;-72
2022/01/03 01:37:48;;;;;;;4.95;2.28;;;11.20;99.90;;;;;;2088464;28;20029;-72
2022/01/03 01:38:51;;;;;;;5.00;2.50;;;11.10;99.90;;;;;;2080149;28;20038;-71
2022/01/03 01:39:55;;;;;;;2.75;1.95;;;11.00;99.90;;;;;;2080540;28;20049;-71
2022/01/03 01:40:58;;;;;;;4.35;1.92;;;10.90;99.90;;;;;;2088383;28;20066;-73
2022/01/03 01:42:04;;;;;;;2.80;1.73;;;10.80;99.90;;;;;;2088000;28;20122;-72
2022/01/03 01:43:11;;;;;;;2.35;1.77;;;10.60;99.90;;;;;;2088629;28;20039;-72
2022/01/03 01:44:14;;;;;;;3.40;1.80;;;10.50;99.90;;;;;;2080598;28;20033;-71
2022/01/03 01:45:19;;;;;;;3.83;1.55;;;10.40;99.90;;;;;;2088366;28;20025;-72
2022/01/03 01:46:21;;;;;;;3.10;1.40;;;10.40;99.90;;;;;;2080104;28;20013;-71
2022/01/03 01:47:26;;;;;;;5.20;1.48;;;10.30;99.90;;;;;;2080804;28;20029;-72
2022/01/03 01:48:32;;;;;;;3.60;1.30;;;10.20;99.90;;;;;;2088500;28;20021;-72
2022/01/03 01:49:46;;;;;;;3.92;1.38;;;10.20;99.90;;;;;;2088840;28;20133;-72
2022/01/03 01:50:51;;;;;;;1.42;1.17;;;10.10;99.90;;;;;;2089631;28;20029;-72
2022/01/03 01:52:00;;;;;;;2.45;1.38;;;10.10;99.90;;;;;;2088779;28;20029;-71
2022/01/03 01:53:05;;;;;;;2.60;1.20;;;10.00;99.90;;;;;;2089078;28;20421;-72
2022/01/03 01:54:07;;;;;;;3.28;1.30;;;10.00;99.90;;;;;;2088434;28;20424;-72
2022/01/03 01:55:12;;;;;;;2.70;1.38;;;10.00;99.90;;;;;;2088504;28;20025;-72
2022/01/03 01:56:26;;;;;;;3.45;1.30;;;9.90;99.90;;;;;;2088560;28;20083;-72
2022/01/03 01:57:48;;;;;;;3.45;1.20;;;9.90;99.90;;;;;;2088257;28;20450;-72
2022/01/03 01:59:18;;;;;;;2.22;1.13;;;9.80;99.90;;;;;;2087792;28;20408;-71
2022/01/03 02:00:21;;;;;;;1.75;1.23;;;9.80;99.90;;;;;;2084344;28;20056;-71
2022/01/03 02:01:47;;;;;;;4.30;1.40;;;9.80;99.90;;;;;;2088786;28;20037;-71
2022/01/03 02:03:46;;;;;;;1.65;1.00;;;9.70;99.90;;;;;;2088489;28;20040;-72
2022/01/03 02:05:18;;;;;;;2.22;1.10;;;9.70;99.90;;;;;;2055524;28;20038;-72
2022/01/03 02:06:27;;;;;;;3.97;1.05;;;9.60;99.90;;;;;;2080842;28;20101;-73
2022/01/03 02:07:47;;;;;;;3.08;1.10;;;9.60;99.90;;;;;;2089007;28;20028;-72
2022/01/03 02:09:05;;;;;;;1.58;1.00;;;9.60;99.90;;;;;;2082547;28;20029;-73
2022/01/03 02:10:15;;;;;;;2.88;0.90;;;9.60;99.90;;;;;;2089292;28;20051;-71
2022/01/03 02:11:32;;;;;;;3.42;0.90;;;9.50;99.90;;;;;;2088770;28;20075;-74
2022/01/03 02:12:37;;;;;;;3.33;1.00;;;9.50;99.90;;;;;;2089115;28;20029;-72
2022/01/03 02:13:39;;;;;;;2.35;0.90;;;9.50;99.90;;;;;;2088714;28;20555;-72
2022/01/03 02:14:40;;;;;;;2.05;0.90;;;9.40;99.90;;;;;;2088878;28;20032;-73
2022/01/03 02:15:49;;;;;;;2.42;0.90;;;9.40;99.90;;;;;;2081238;28;20056;-72
2022/01/03 02:16:51;;;;;;;2.28;0.90;;;9.40;99.90;;;;;;2088564;28;20031;-71
2022/01/03 02:17:52;;;;;;;3.20;0.80;;;9.30;99.90;;;;;;2088423;28;20025;-68
2022/01/03 02:18:54;;;;;;;1.98;0.80;;;9.30;99.90;;;;;;2080063;28;20044;-73
2022/01/03 02:20:08;;;;;;;2.72;0.77;;;9.20;99.90;;;;;;2088634;28;20028;-72
2022/01/03 02:21:09;;;;;;;1.27;0.70;;;9.20;99.90;;;;;;2088388;28;20068;-72
2022/01/03 02:22:10;;;;;;;1.63;0.70;;;9.20;99.90;;;;;;2088292;28;20029;-73
2022/01/03 02:23:18;;;;;;;2.80;0.70;;;9.20;99.90;;;;;;2089308;28;20159;-73
2022/01/03 02:24:20;;;;;;;2.67;0.70;;;9.20;99.90;;;;;;2088756;28;20033;-73
2022/01/03 02:25:23;;;;;;;2.22;0.90;;;9.20;99.90;;;;;;2088586;28;20017;-72
2022/01/03 02:26:24;;;;;;;2.67;0.68;;;9.20;99.90;;;;;;2088911;28;20024;-73
2022/01/03 02:27:25;;;;;;;2.05;0.80;;;9.20;99.90;;;;;;2088857;28;20052;-71
2022/01/03 02:28:26;;;;;;;3.03;0.75;;;9.20;99.90;;;;;;2088818;28;20109;-72
2022/01/03 02:29:29;;;;;;;1.63;0.70;;;9.20;99.90;;;;;;2087439;28;20097;-72
2022/01/03 02:30:32;;;;;;;2.33;0.80;;;9.20;99.90;;;;;;2088193;28;20013;-72
2022/01/03 02:31:34;;;;;;;1.20;0.70;;;9.30;99.90;;;;;;2087990;28;20697;-71
2022/01/03 02:32:35;;;;;;;1.23;0.70;;;9.30;99.90;;;;;;2088279;28;20040;-73
2022/01/03 02:33:35;;;;;;;1.90;0.80;;;9.30;99.90;;;;;;2079705;28;20124;-74
2022/01/03 02:34:38;;;;;;;1.45;0.80;;;9.30;99.90;;;;;;2088054;28;20040;-72
2022/01/03 02:35:40;;;;;;;3.50;0.70;;;9.30;99.90;;;;;;2087898;28;20063;-72
2022/01/03 02:36:44;;;;;;;2.00;0.63;;;9.30;99.90;;;;;;2080313;28;20083;-72
2022/01/03 02:37:47;;;;;;;1.80;0.70;;;9.30;99.90;;;;;;2079872;28;20021;-71
2022/01/03 02:38:49;;;;;;;3.03;0.70;;;9.40;99.90;;;;;;2087318;28;20025;-72
2022/01/03 02:39:51;;;;;;;1.50;0.50;;;9.40;99.90;;;;;;2087834;28;20036;-72
2022/01/03 02:40:52;;;;;;;0.90;0.60;;;9.40;99.90;;;;;;2088122;28;20059;-72
2022/01/03 02:41:53;;;;;;;0.90;0.60;;;9.40;99.90;;;;;;2087607;28;20478;-72
2022/01/03 02:42:54;;;;;;;1.17;0.60;;;9.40;99.90;;;;;;2088042;28;20029;-72
2022/01/03 02:43:56;;;;;;;0.70;0.50;;;9.40;99.90;;;;;;2088139;28;20098;-72
2022/01/03 02:44:59;;;;;;;1.65;0.60;;;9.40;99.90;;;;;;2087864;28;20443;-72
2022/01/03 02:46:00;;;;;;;1.33;0.65;;;9.40;99.90;;;;;;2080165;28;20021;-71
2022/01/03 02:47:02;;;;;;;1.15;0.60;;;9.50;99.90;;;;;;2080113;28;20096;-71
2022/01/03 02:48:07;;;;;;;2.25;0.60;;;9.50;99.90;;;;;;2088022;28;20121;-72
2022/01/03 02:49:09;;;;;;;2.05;0.63;;;9.50;99.90;;;;;;2071803;28;20161;-71
2022/01/03 02:50:10;;;;;;;1.50;0.70;;;9.50;99.90;;;;;;2071593;28;20065;-71
2022/01/03 02:51:12;;;;;;;0.93;0.70;;;9.50;99.90;;;;;;2088040;28;20032;-72
2022/01/03 02:52:13;;;;;;;0.85;0.50;;;9.60;99.90;;;;;;2089112;28;20064;-72
2022/01/03 02:53:14;;;;;;;2.67;1.00;;;9.60;99.90;;;;;;2089847;28;20389;-71
2022/01/03 02:54:15;;;;;;;2.25;1.00;;;9.60;99.90;;;;;;2090718;28;20083;-72
2022/01/03 02:55:16;;;;;;;3.45;1.00;;;9.50;99.90;;;;;;2090349;28;20392;-72
2022/01/03 02:56:20;;;;;;;1.45;0.82;;;9.50;99.90;;;;;;2088438;28;20032;-71
2022/01/03 02:57:23;;;;;;;1.17;0.80;;;9.50;99.90;;;;;;2088532;28;20099;-72
2022/01/03 02:58:24;;;;;;;2.90;1.00;;;9.50;99.90;;;;;;2088295;28;20037;-72
2022/01/03 02:59:25;;;;;;;4.88;1.83;;;9.50;99.90;;;;;;2088479;28;20025;-72
2022/01/03 03:00:29;;;;;;;1.73;0.80;;;9.50;99.90;;;;;;2091375;28;20044;-71
2022/01/03 03:01:29;;;;;;;1.88;0.73;;;9.50;99.90;;;;;;2092617;28;20473;-73
2022/01/03 03:02:32;;;;;;;0.80;0.70;;;9.50;99.90;;;;;;2090388;28;20484;-71
2022/01/03 03:03:33;;;;;;;1.02;0.60;;;9.50;99.90;;;;;;2091698;28;20106;-73
2022/01/03 03:04:54;;;;;;;0.60;0.60;;;9.40;99.90;;;;;;2083307;28;20543;-72
2022/01/03 03:05:58;;;;;;;1.85;0.70;;;9.40;99.90;;;;;;2087916;28;20097;-72
2022/01/03 03:06:59;;;;;;;1.45;0.70;;;9.40;99.90;;;;;;2082719;28;20041;-73
2022/01/03 03:07:59;;;;;;;1.10;0.63;;;9.40;99.90;;;;;;2088483;28;20044;-71
2022/01/03 03:09:04;;;;;;;2.05;0.80;;;9.30;99.90;;;;;;2087723;28;20591;-73
2022/01/03 03:10:12;;;;;;;2.65;0.80;;;9.40;99.90;;;;;;2088421;28;20029;-70
2022/01/03 03:11:13;;;;;;;1.42;0.70;;;9.30;99.90;;;;;;2089119;28;20440;-70
2022/01/03 03:12:14;;;;;;;1.38;0.70;;;9.30;99.90;;;;;;2088838;28;20021;-71
2022/01/03 03:13:15;;;;;;;1.42;0.80;;;9.30;99.90;;;;;;2088354;28;20178;-70
2022/01/03 03:14:16;;;;;;;2.67;1.08;;;9.30;99.90;;;;;;2088590;28;20059;-70
2022/01/03 03:15:17;;;;;;;0.85;0.70;;;9.30;99.90;;;;;;2088143;28;20037;-70
2022/01/03 03:16:18;;;;;;;1.35;0.80;;;9.30;99.90;;;;;;2088147;28;20025;-71
2022/01/03 03:17:19;;;;;;;1.63;0.70;;;9.30;99.90;;;;;;2079689;28;20084;-71
2022/01/03 03:18:19;;;;;;;1.17;0.70;;;9.30;99.90;;;;;;2088086;28;20040;-70
2022/01/03 03:19:20;;;;;;;0.98;0.80;;;9.30;99.90;;;;;;2088403;28;20127;-71
2022/01/03 03:20:23;;;;;;;2.17;0.70;;;9.30;99.90;;;;;;2087882;28;20067;-71
2022/01/03 03:21:28;;;;;;;0.98;0.80;;;9.30;99.90;;;;;;2088133;28;20063;-71
2022/01/03 03:22:30;;;;;;;1.85;0.80;;;9.20;99.90;;;;;;2088053;28;20116;-71
2022/01/03 03:23:32;;;;;;;1.08;0.70;;;9.20;99.90;;;;;;2088393;28;20025;-72
2022/01/03 03:24:34;;;;;;;1.80;0.80;;;9.20;99.90;;;;;;2088319;28;20021;-71
2022/01/03 03:25:36;;;;;;;1.58;0.73;;;9.30;99.90;;;;;;2087973;28;20073;-70
2022/01/03 03:26:40;;;;;;;2.95;0.90;;;9.20;99.90;;;;;;2088432;28;20531;-71
2022/01/03 03:27:44;;;;;;;1.50;0.80;;;9.30;99.90;;;;;;2088073;28;20558;-71
2022/01/03 03:28:47;;;;;;;1.65;0.80;;;9.20;99.90;;;;;;2087731;28;20036;-70
2022/01/03 03:29:50;;;;;;;1.27;0.90;;;9.20;99.90;;;;;;2088249;28;20028;-70
2022/01/03 03:30:52;;;;;;;1.60;0.80;;;9.30;99.90;;;;;;2088162;28;20024;-70
2022/01/03 03:31:59;;;;;;;3.13;0.90;;;9.20;99.90;;;;;;2087800;28;20076;-73
2022/01/03 03:33:07;;;;;;;2.17;0.80;;;9.20;99.90;;;;;;2088117;28;20036;-70
2022/01/03 03:34:09;;;;;;;2.88;0.90;;;9.20;99.90;;;;;;2088140;28;20049;-72
2022/01/03 03:35:11;;;;;;;1.52;0.80;;;9.20;99.90;;;;;;2088054;28;20036;-69
2022/01/03 03:36:12;;;;;;;1.90;0.80;;;9.20;99.90;;;;;;2088214;28;20021;-69
2022/01/03 03:37:16;;;;;;;1.00;0.90;;;9.10;99.90;;;;;;2088306;28;20029;-69
2022/01/03 03:38:23;;;;;;;1.73;0.90;;;9.10;99.90;;;;;;2087964;28;20017;-71
2022/01/03 03:39:24;;;;;;;1.58;0.93;;;9.10;99.90;;;;;;2087816;28;20051;-72
2022/01/03 03:40:25;;;;;;;2.08;0.90;;;9.10;99.90;;;;;;2088084;28;20496;-69
2022/01/03 03:41:26;;;;;;;3.00;1.00;;;9.10;99.90;;;;;;2079574;28;20497;-70
2022/01/03 03:42:30;;;;;;;0.82;0.70;;;9.10;99.90;;;;;;2080214;28;20036;-70
2022/01/03 03:43:30;;;;;;;1.25;0.90;;;9.10;99.90;;;;;;2088034;28;20096;-70
2022/01/03 03:44:34;;;;;;;1.35;0.77;;;9.10;99.90;;;;;;2087994;28;20025;-69
2022/01/03 03:45:35;;;;;;;1.70;0.88;;;9.10;99.90;;;;;;2088441;28;20029;-71
2022/01/03 03:46:37;;;;;;;2.55;0.90;;;9.10;99.90;;;;;;2081484;28;20079;-70
2022/01/03 03:47:39;;;;;;;2.67;0.93;;;9.10;99.90;;;;;;2089908;28;20447;-69
2022/01/03 03:48:41;;;;;;;2.72;0.88;;;9.10;99.90;;;;;;2081250;28;20509;-71
2022/01/03 03:49:45;;;;;;;3.22;0.90;;;9.10;99.90;;;;;;2082112;28;20092;-71
2022/01/03 03:50:46;;;;;;;2.47;1.10;;;9.10;99.90;;;;;;2089877;28;20028;-69
2022/01/03 03:51:49;;;;;;;2.72;1.10;;;9.10;99.90;;;;;;2089307;28;20025;-69
2022/01/03 03:52:49;;;;;;;1.40;0.90;;;9.10;99.90;;;;;;2090750;28;20443;-68
2022/01/03 03:53:52;;;;;;;2.55;1.00;;;9.00;99.90;;;;;;2089812;28;20029;-70
2022/01/03 03:54:55;;;;;;;1.35;0.90;;;9.10;99.90;;;;;;2089628;28;20365;-69
2022/01/03 03:55:56;;;;;;;2.25;1.20;;;9.10;99.90;;;;;;2081460;28;20057;-69
2022/01/03 03:57:01;;;;;;;4.03;1.00;;;9.00;99.90;;;;;;2089655;28;20080;-70
2022/01/03 03:58:04;;;;;;;2.60;1.00;;;9.00;99.90;;;;;;2089657;28;20064;-69
2022/01/03 03:59:07;;;;;;;2.60;0.90;;;8.90;99.90;;;;;;2089242;28;20059;-69
2022/01/03 04:00:11;;;;;;;1.33;0.90;;;8.90;99.90;;;;;;2089473;28;20141;-71
2022/01/03 04:01:13;;;;;;;1.52;1.02;;;8.90;99.90;;;;;;2089667;28;20553;-70
2022/01/03 04:02:20;;;;;;;4.65;1.00;;;8.90;99.90;;;;;;2089012;28;20036;-70
2022/01/03 04:03:20;;;;;;;1.77;0.93;;;8.90;99.90;;;;;;2089487;28;20500;-69
2022/01/03 04:04:22;;;;;;;3.50;1.10;;;8.90;99.90;;;;;;2081105;28;20028;-70
2022/01/03 04:05:23;;;;;;;3.83;1.08;;;8.90;99.90;;;;;;2081348;28;20044;-71
2022/01/03 04:06:25;;;;;;;2.95;1.20;;;8.90;99.90;;;;;;2080999;28;20092;-71
2022/01/03 04:07:30;;;;;;;1.90;1.00;;;8.90;99.90;;;;;;2081042;28;20465;-71
2022/01/03 04:08:30;;;;;;;1.83;1.05;;;8.90;99.90;;;;;;2073248;28;20029;-71
2022/01/03 04:09:32;;;;;;;4.30;1.10;;;8.90;99.90;;;;;;2080313;28;20021;-71
2022/01/03 04:10:32;;;;;;;4.38;1.17;;;8.90;99.90;;;;;;2088948;28;20029;-71
2022/01/03 04:11:34;;;;;;;2.00;1.00;;;8.90;99.90;;;;;;2088790;28;20021;-71
2022/01/03 04:12:36;;;;;;;1.70;1.00;;;8.90;99.90;;;;;;2081021;28;20505;-71
2022/01/03 04:13:38;;;;;;;2.13;0.90;;;9.00;99.90;;;;;;2089054;28;20773;-71
2022/01/03 04:14:41;;;;;;;2.95;1.10;;;9.00;99.90;;;;;;2089175;28;20028;-71
2022/01/03 04:15:42;;;;;;;2.58;1.17;;;9.00;99.90;;;;;;2089105;28;20079;-71
2022/01/03 04:16:44;;;;;;;3.22;1.20;;;9.10;99.90;;;;;;2089059;28;20563;-71
2022/01/03 04:17:48;;;;;;;3.17;1.10;;;9.10;99.90;;;;;;2089049;28;20044;-71
2022/01/03 04:18:52;;;;;;;2.80;1.10;;;9.10;99.90;;;;;;2088280;28;20037;-71
2022/01/03 04:19:53;;;;;;;2.22;1.10;;;9.20;99.90;;;;;;2088916;28;20033;-72
2022/01/03 04:20:55;;;;;;;2.05;1.00;;;9.20;99.90;;;;;;2088956;28;20040;-72
2022/01/03 04:21:55;;;;;;;5.15;1.20;;;9.20;99.90;;;;;;2088650;28;20044;-72
2022/01/03 04:22:56;;;;;;;1.83;1.10;;;9.20;99.90;;;;;;2088969;28;20039;-71
2022/01/03 04:23:58;;;;;;;1.60;1.00;;;9.30;99.90;;;;;;2080955;28;20580;-73
2022/01/03 04:24:59;;;;;;;2.60;1.00;;;9.20;99.90;;;;;;2089396;28;20569;-71
2022/01/03 04:26:01;;;;;;;2.15;1.20;;;9.20;99.90;;;;;;2072773;28;20543;-71
2022/01/03 04:27:01;;;;;;;2.92;1.15;;;9.20;99.90;;;;;;2073041;28;20033;-70
2022/01/03 04:28:02;;;;;;;3.30;1.10;;;9.20;99.90;;;;;;2089209;28;20059;-71
2022/01/03 04:29:04;;;;;;;1.55;1.00;;;9.20;99.90;;;;;;2088951;28;20055;-73
2022/01/03 04:30:05;;;;;;;2.55;1.30;;;9.20;99.90;;;;;;2089360;28;20060;-73
2022/01/03 04:31:06;;;;;;;1.63;0.80;;;9.20;99.90;;;;;;2089104;28;20040;-73
2022/01/03 04:32:08;;;;;;;2.17;1.20;;;9.20;99.90;;;;;;2088937;28;20086;-73
2022/01/03 04:33:09;;;;;;;2.72;1.10;;;9.20;99.90;;;;;;2089030;28;20091;-73
2022/01/03 04:34:10;;;;;;;2.80;1.00;;;9.20;99.90;;;;;;2089220;28;20033;-73
2022/01/03 04:35:11;;;;;;;2.45;1.10;;;9.20;99.90;;;;;;2089125;28;20037;-74
2022/01/03 04:36:11;;;;;;;3.10;1.10;;;9.20;99.90;;;;;;2089377;28;20025;-74
2022/01/03 04:37:14;;;;;;;2.22;0.93;;;9.20;99.90;;;;;;2089417;28;20061;-74
2022/01/03 04:38:15;;;;;;;2.70;0.90;;;9.10;99.90;;;;;;2089425;28;20437;-74
2022/01/03 04:39:16;;;;;;;2.20;0.95;;;9.20;99.90;;;;;;2089283;28;20036;-74
2022/01/03 04:40:17;;;;;;;1.92;1.15;;;9.10;99.90;;;;;;2089501;28;20028;-71
2022/01/03 04:41:18;;;;;;;1.63;1.00;;;9.20;99.90;;;;;;2089101;28;20032;-73
2022/01/03 04:42:18;;;;;;;2.20;1.20;;;9.20;99.90;;;;;;2089150;28;20049;-73
2022/01/03 04:43:19;;;;;;;1.80;1.10;;;9.20;99.90;;;;;;2089346;28;20099;-72
2022/01/03 04:44:21;;;;;;;1.83;1.08;;;9.20;99.90;;;;;;2089251;28;20025;-73
2022/01/03 04:45:22;;;;;;;1.55;1.00;;;9.20;99.90;;;;;;2089208;28;20071;-73
2022/01/03 04:46:22;;;;;;;2.28;1.20;;;9.20;99.90;;;;;;2080965;28;20025;-73
2022/01/03 04:47:23;;;;;;;3.35;1.20;;;9.20;99.90;;;;;;2089257;28;20035;-73
2022/01/03 04:48:24;;;;;;;2.20;1.00;;;9.30;99.90;;;;;;2089510;28;20021;-73
2022/01/03 04:49:24;;;;;;;2.83;1.17;;;9.30;99.90;;;;;;2088675;28;20028;-73
2022/01/03 04:50:26;;;;;;;1.30;1.00;;;9.30;99.90;;;;;;2089452;28;20528;-73
2022/01/03 04:51:27;;;;;;;2.42;1.10;;;9.40;99.90;;;;;;2089102;28;20029;-73
2022/01/03 04:52:27;;;;;;;1.63;1.00;;;9.40;99.90;;;;;;2089507;28;20116;-72
2022/01/03 04:53:28;;;;;;;2.03;1.00;;;9.40;99.90;;;;;;2089001;28;20409;-72
2022/01/03 04:54:29;;;;;;;2.55;1.20;;;9.40;99.90;;;;;;2089074;28;20032;-71
2022/01/03 04:55:30;;;;;;;2.95;1.15;;;9.50;99.90;;;;;;2080839;28;20025;-72
2022/01/03 04:56:31;;;;;;;1.65;1.10;;;9.50;99.90;;;;;;2089119;28;20559;-72
2022/01/03 04:57:31;;;;;;;4.75;1.20;;;9.50;99.90;;;;;;2088949;28;20029;-72
2022/01/03 04:58:32;;;;;;;1.80;1.10;;;9.50;99.90;;;;;;2089989;28;20025;-72
2022/01/03 04:59:33;;;;;;;2.40;1.20;;;9.50;99.90;;;;;;2088843;28;20025;-73
2022/01/03 05:00:33;;;;;;;1.80;1.30;;;9.50;99.90;;;;;;2088989;28;20064;-72
2022/01/03 05:01:35;;;;;;;1.67;1.10;;;9.50;99.90;;;;;;2080579;28;20123;-72
2022/01/03 05:02:37;;;;;;;2.50;1.13;;;9.50;99.90;;;;;;2080667;28;20037;-72
2022/01/03 05:03:38;;;;;;;1.30;1.15;;;9.50;99.90;;;;;;2080977;28;20029;-72
2022/01/03 05:04:39;;;;;;;2.20;1.20;;;9.50;99.90;;;;;;2080752;28;20017;-72
2022/01/03 05:05:40;;;;;;;2.72;1.30;;;9.40;99.90;;;;;;2072561;28;20033;-72
2022/01/03 05:06:42;;;;;;;3.30;1.20;;;9.40;99.90;;;;;;2072505;28;20025;-72
2022/01/03 05:07:42;;;;;;;1.70;1.20;;;9.30;99.90;;;;;;2072606;28;20478;-72
2022/01/03 05:08:46;;;;;;;1.60;1.00;;;9.40;99.90;;;;;;2080117;28;20025;-71
2022/01/03 05:09:49;;;;;;;2.92;1.50;;;9.40;99.90;;;;;;2088876;28;20029;-72
2022/01/03 05:10:50;;;;;;;4.30;1.30;;;9.40;99.90;;;;;;2088806;28;20156;-72
2022/01/03 05:11:52;;;;;;;2.38;1.30;;;9.40;99.90;;;;;;2088603;28;20052;-72
2022/01/03 05:12:52;;;;;;;3.28;1.50;;;9.40;99.90;;;;;;2088889;28;20029;-72
2022/01/03 05:13:53;;;;;;;2.35;1.30;;;9.40;99.90;;;;;;2088905;28;20025;-72
2022/01/03 05:14:54;;;;;;;2.95;1.17;;;9.40;99.90;;;;;;2089690;28;20053;-72
2022/01/03 05:15:54;;;;;;;3.60;1.35;;;9.30;99.90;;;;;;2089507;28;20017;-72
2022/01/03 05:16:57;;;;;;;2.55;1.30;;;9.40;99.90;;;;;;2089408;28;20080;-72
2022/01/03 05:17:58;;;;;;;3.95;1.35;;;9.40;99.90;;;;;;2088848;28;20111;-72
2022/01/03 05:18:58;;;;;;;2.00;1.33;;;9.40;99.90;;;;;;2079881;28;20030;-72
2022/01/03 05:19:59;;;;;;;2.03;1.30;;;9.40;99.90;;;;;;2080663;28;20060;-72
2022/01/03 05:21:00;;;;;;;1.80;1.20;;;9.40;99.90;;;;;;2088796;28;20068;-72
2022/01/03 05:22:05;;;;;;;3.03;1.40;;;9.30;99.90;;;;;;2080868;28;20036;-73
2022/01/03 05:23:06;;;;;;;4.43;1.50;;;9.30;99.90;;;;;;2080762;28;20056;-72
2022/01/03 05:24:07;;;;;;;2.90;1.40;;;9.40;99.90;;;;;;2081173;28;20471;-70
2022/01/03 05:25:08;;;;;;;2.97;1.60;;;9.30;99.90;;;;;;2089532;28;20087;-72
2022/01/03 05:26:09;;;;;;;2.95;1.30;;;9.30;99.90;;;;;;2088767;28;20056;-69
2022/01/03 05:27:10;;;;;;;5.18;1.33;;;9.40;99.90;;;;;;2089031;28;20070;-70
2022/01/03 05:28:11;;;;;;;5.95;1.40;;;9.40;99.90;;;;;;2091734;28;20033;-70
2022/01/03 05:29:11;;;;;;;4.75;1.40;;;9.40;99.90;;;;;;2095145;28;20025;-70
2022/01/03 05:30:12;;;;;;;3.35;1.38;;;9.40;99.90;;;;;;2092663;28;20028;-70
2022/01/03 05:31:13;;;;;;;3.58;1.40;;;9.40;99.90;;;;;;2089143;28;20129;-69
2022/01/03 05:32:14;;;;;;;3.85;1.58;;;9.40;99.90;;;;;;2088477;28;20027;-71
2022/01/03 05:33:15;;;;;;;2.70;1.50;;;9.40;99.90;;;;;;2080512;28;20519;-71
2022/01/03 05:34:16;;;;;;;3.55;1.40;;;9.40;99.90;;;;;;2088536;28;20116;-71
2022/01/03 05:35:17;;;;;;;3.25;1.40;;;9.40;99.90;;;;;;2088758;28;20021;-71
2022/01/03 05:36:18;;;;;;;2.88;1.60;;;9.40;99.90;;;;;;2088859;28;20033;-71